createdAt,value
2023-04-19T00:00:00.844Z,6.32
2023-04-19T00:02:31.698Z,5.32
2023-04-19T00:05:02.070Z,6.63
2023-04-19T00:07:30.084Z,6.05
2023-04-19T00:09:58.312Z,6.68
2023-04-19T00:12:26.207Z,5.28
2023-04-19T00:14:54.040Z,6.68
2023-04-19T00:17:23.095Z,5.07
2023-04-19T00:19:51.228Z,6.85
2023-04-19T00:22:19.165Z,4.30
2023-04-19T00:24:46.973Z,6.90
2023-04-19T00:27:14.813Z,6.82
2023-04-19T00:29:43.150Z,5.85
2023-04-19T00:32:11.531Z,4.55
2023-04-19T00:34:39.576Z,4.90
2023-04-19T00:37:08.999Z,6.93
2023-04-19T00:39:37.506Z,5.07
2023-04-19T00:42:08.035Z,5.63
2023-04-19T00:44:35.908Z,7.05
2023-04-19T00:47:04.267Z,5.82
2023-04-19T00:49:33.377Z,3.75
2023-04-19T00:52:03.344Z,6.38
2023-04-19T00:54:31.679Z,6.53
2023-04-19T00:56:59.525Z,5.05
2023-04-19T00:59:27.208Z,6.90
2023-04-19T01:01:55.429Z,6.05
2023-04-19T01:04:38.788Z,5.43
2023-04-19T01:07:07.777Z,4.38
2023-04-19T01:09:36.679Z,6.55
2023-04-19T01:12:04.981Z,5.72
2023-04-19T01:14:32.773Z,6.35
2023-04-19T01:17:00.700Z,5.65
2023-04-19T01:19:28.723Z,4.90
2023-04-19T01:21:58.469Z,6.47
2023-04-19T01:24:26.859Z,4.38
2023-04-19T01:26:54.759Z,6.43
2023-04-19T01:29:22.528Z,5.13
2023-04-19T01:31:54.165Z,5.25
2023-04-19T01:34:23.444Z,4.85
2023-04-19T01:36:51.331Z,4.35
2023-04-19T01:39:19.586Z,4.68
2023-04-19T01:41:47.568Z,5.35
2023-04-19T01:44:15.580Z,6.63
2023-04-19T01:46:43.661Z,6.25
2023-04-19T01:49:11.637Z,8.63
2023-04-19T01:51:39.689Z,5.35
2023-04-19T01:54:10.356Z,4.68
2023-04-19T01:56:38.211Z,5.55
2023-04-19T01:59:06.254Z,6.35
2023-04-19T02:01:34.000Z,4.97
2023-04-19T02:04:03.898Z,4.63
2023-04-19T02:06:32.720Z,8.75
2023-04-19T02:09:01.778Z,3.88
2023-04-19T02:11:29.698Z,4.63
2023-04-19T02:13:57.625Z,3.60
2023-04-19T02:16:25.613Z,6.35
2023-04-19T02:18:53.650Z,5.10
2023-04-19T02:21:21.776Z,3.63
2023-04-19T02:23:49.782Z,5.68
2023-04-19T02:26:17.625Z,6.35
2023-04-19T02:28:45.417Z,4.65
2023-04-19T02:31:14.107Z,3.90
2023-04-19T02:33:41.905Z,3.83
2023-04-19T02:36:11.041Z,4.65
2023-04-19T02:38:39.888Z,5.63
2023-04-19T02:41:07.818Z,5.30
2023-04-19T02:43:39.516Z,3.78
2023-04-19T02:46:07.735Z,5.15
2023-04-19T02:48:35.958Z,3.15
2023-04-19T02:51:03.817Z,6.30
2023-04-19T02:53:32.569Z,5.05
2023-04-19T02:56:01.668Z,4.93
2023-04-19T02:58:29.695Z,3.83
2023-04-19T03:01:04.876Z,3.90
2023-04-19T03:03:32.726Z,5.50
2023-04-19T03:06:00.728Z,5.88
2023-04-19T03:08:29.660Z,4.80
2023-04-19T03:10:57.672Z,3.78
2023-04-19T03:13:25.742Z,4.47
2023-04-19T03:15:53.555Z,4.15
2023-04-19T03:18:25.197Z,6.18
2023-04-19T03:20:55.954Z,5.28
2023-04-19T03:23:23.768Z,3.10
2023-04-19T03:25:51.863Z,5.45
2023-04-19T03:28:35.211Z,3.97
2023-04-19T03:31:21.295Z,5.13
2023-04-19T03:33:51.515Z,5.07
2023-04-19T03:36:23.352Z,5.28
2023-04-19T03:38:51.326Z,4.93
2023-04-19T03:41:21.057Z,3.72
2023-04-19T03:43:52.347Z,3.00
2023-04-19T03:46:20.649Z,2.75
2023-04-19T03:48:48.573Z,4.15
2023-04-19T03:51:16.747Z,3.58
2023-04-19T03:53:45.377Z,2.80
2023-04-19T03:56:13.246Z,2.47
2023-04-19T03:58:42.704Z,4.32
2023-04-19T04:01:22.210Z,3.33
2023-04-19T04:03:52.031Z,3.00
2023-04-19T04:06:20.320Z,5.53
2023-04-19T04:08:48.720Z,2.72
2023-04-19T04:11:16.862Z,5.35
2023-04-19T04:13:47.527Z,3.97
2023-04-19T04:16:19.679Z,3.08
2023-04-19T04:18:48.533Z,3.17
2023-04-19T04:21:17.000Z,4.10
2023-04-19T04:23:50.085Z,3.17
2023-04-19T04:26:41.507Z,6.88
2023-04-19T04:29:39.466Z,4.78
2023-04-19T04:32:10.689Z,4.63
2023-04-19T04:34:43.090Z,5.65
2023-04-19T04:37:16.536Z,3.53
2023-04-19T04:39:44.542Z,4.90
2023-04-19T04:42:13.807Z,3.92
2023-04-19T04:44:42.337Z,4.93
2023-04-19T04:47:13.780Z,3.22
2023-04-19T04:49:48.318Z,5.43
2023-04-19T04:52:17.500Z,5.78
2023-04-19T04:54:58.242Z,3.00
2023-04-19T04:57:32.171Z,3.83
2023-04-19T05:00:01.640Z,5.47
2023-04-19T05:02:36.526Z,2.67
2023-04-19T05:05:04.825Z,3.05
2023-04-19T05:07:33.773Z,3.72
2023-04-19T05:10:04.605Z,3.92
2023-04-19T05:12:42.239Z,4.53
2023-04-19T05:15:12.188Z,4.93
2023-04-19T05:17:44.681Z,6.50
2023-04-19T05:20:14.233Z,8.85
2023-04-19T05:22:43.438Z,16.90
2023-04-19T05:25:12.844Z,14.57
2023-04-19T05:27:41.152Z,11.82
2023-04-19T05:30:10.214Z,9.63
2023-04-19T05:32:42.402Z,9.07
2023-04-19T05:35:12.363Z,11.20
2023-04-19T05:37:44.468Z,10.27
2023-04-19T05:40:14.199Z,10.02
2023-04-19T05:42:42.950Z,16.38
2023-04-19T05:45:15.077Z,14.93
2023-04-19T05:47:45.706Z,13.98
2023-04-19T05:50:37.205Z,15.90
2023-04-19T05:53:28.076Z,13.48
2023-04-19T05:55:58.333Z,14.55
2023-04-19T05:58:27.384Z,16.15
2023-04-19T06:00:55.793Z,8.35
2023-04-19T06:03:27.747Z,12.52
2023-04-19T06:06:01.256Z,8.95
2023-04-19T06:08:29.258Z,9.38
2023-04-19T06:11:02.109Z,13.30
2023-04-19T06:13:33.743Z,10.32
2023-04-19T06:16:01.824Z,8.55
2023-04-19T06:18:30.825Z,17.25
2023-04-19T06:20:58.576Z,9.32
2023-04-19T06:23:27.171Z,10.80
2023-04-19T06:25:55.156Z,10.10
2023-04-19T06:28:23.052Z,10.57
2023-04-19T06:30:50.834Z,12.55
2023-04-19T06:33:18.802Z,7.30
2023-04-19T06:35:46.561Z,10.00
2023-04-19T06:38:14.200Z,12.40
2023-04-19T06:40:42.161Z,10.60
2023-04-19T06:43:10.225Z,8.10
2023-04-19T06:45:39.313Z,9.70
2023-04-19T06:48:07.066Z,8.00
2023-04-19T06:50:35.126Z,8.77
2023-04-19T06:53:04.724Z,8.38
2023-04-19T06:55:32.802Z,9.40
2023-04-19T06:58:04.267Z,15.15
2023-04-19T07:00:32.301Z,8.88
2023-04-19T07:03:00.929Z,11.10
2023-04-19T07:05:30.054Z,9.43
2023-04-19T07:07:59.504Z,7.40
2023-04-19T07:10:27.336Z,7.90
2023-04-19T07:12:56.006Z,13.57
2023-04-19T07:15:23.894Z,10.93
2023-04-19T07:17:53.709Z,15.30
2023-04-19T07:20:21.915Z,16.55
2023-04-19T07:22:49.609Z,19.65
2023-04-19T07:25:17.654Z,16.48
2023-04-19T07:27:45.719Z,14.82
2023-04-19T07:30:13.585Z,10.70
2023-04-19T07:32:42.119Z,16.85
2023-04-19T07:35:12.536Z,17.80
2023-04-19T07:37:40.642Z,16.60
2023-04-19T07:40:09.413Z,12.65
2023-04-19T07:42:42.197Z,11.93
2023-04-19T07:45:10.642Z,13.68
2023-04-19T07:47:38.473Z,13.90
2023-04-19T07:50:07.816Z,11.40
2023-04-19T07:52:35.542Z,13.27
2023-04-19T07:55:03.736Z,12.43
2023-04-19T07:57:31.979Z,13.07
2023-04-19T07:59:59.793Z,13.13
2023-04-19T08:02:28.585Z,14.48
2023-04-19T08:04:58.098Z,14.40
2023-04-19T08:07:28.786Z,12.75
2023-04-19T08:09:58.537Z,10.60
2023-04-19T08:12:35.085Z,12.90
2023-04-19T08:15:29.603Z,12.38
2023-04-19T08:17:57.281Z,13.52
2023-04-19T08:20:25.492Z,14.45
2023-04-19T08:22:55.124Z,10.27
2023-04-19T08:25:27.003Z,13.65
2023-04-19T08:27:55.584Z,13.88
2023-04-19T08:30:24.103Z,11.75
2023-04-19T08:32:52.731Z,13.32
2023-04-19T08:35:22.400Z,14.05
2023-04-19T08:37:50.581Z,10.45
2023-04-19T08:40:18.548Z,11.38
2023-04-19T08:42:46.486Z,11.77
2023-04-19T08:45:29.378Z,10.07
2023-04-19T08:48:01.740Z,9.13
2023-04-19T08:50:35.922Z,9.95
2023-04-19T08:55:58.474Z,9.05
2023-04-19T08:58:50.362Z,7.28
2023-04-19T09:04:04.986Z,6.13
2023-04-19T09:06:39.267Z,7.55
2023-04-19T09:11:50.512Z,5.00
2023-04-19T09:14:21.307Z,4.25
2023-04-19T09:16:49.690Z,6.78
2023-04-19T09:19:24.237Z,6.65
2023-04-19T09:21:55.103Z,5.68
2023-04-19T09:27:17.125Z,8.82
2023-04-19T09:29:56.892Z,5.88
2023-04-19T09:32:25.424Z,8.30
2023-04-19T09:34:59.166Z,6.22
2023-04-19T09:39:58.384Z,5.78
2023-04-19T09:43:05.410Z,6.30
2023-04-19T09:45:44.402Z,6.88
2023-04-19T09:48:13.605Z,5.05
2023-04-19T09:51:07.303Z,5.18
2023-04-19T09:53:41.846Z,7.13
2023-04-19T09:56:13.106Z,5.18
2023-04-19T09:58:49.960Z,4.82
2023-04-19T10:01:22.482Z,4.85
2023-04-19T10:03:52.119Z,3.78
2023-04-19T10:08:55.202Z,3.70
2023-04-19T10:11:23.800Z,2.78
2023-04-19T10:13:57.593Z,6.18
2023-04-19T10:16:26.612Z,3.58
2023-04-19T10:18:57.513Z,6.03
2023-04-19T10:21:28.074Z,4.38
2023-04-19T10:23:57.603Z,3.75
2023-04-19T10:26:25.898Z,6.10
2023-04-19T10:28:59.950Z,7.47
2023-04-19T10:31:30.588Z,9.35
2023-04-19T10:33:59.167Z,9.45
2023-04-19T10:36:28.166Z,5.78
2023-04-19T10:38:57.052Z,6.55
2023-04-19T10:41:44.992Z,13.95
2023-04-19T10:44:12.754Z,18.83
2023-04-19T10:46:41.056Z,20.35
2023-04-19T10:49:10.314Z,14.93
2023-04-19T10:51:39.738Z,13.48
2023-04-19T10:54:28.767Z,9.80
2023-04-19T10:57:05.842Z,6.55
2023-04-19T10:59:37.244Z,7.28
2023-04-19T11:02:33.506Z,5.60
2023-04-19T11:05:02.792Z,6.65
2023-04-19T11:07:37.316Z,2.83
2023-04-19T11:10:05.562Z,3.83
2023-04-19T11:12:34.250Z,3.53
2023-04-19T11:15:03.006Z,4.47
2023-04-19T11:17:32.866Z,4.70
2023-04-19T11:20:10.329Z,2.80
2023-04-19T11:22:40.684Z,2.97
2023-04-19T11:25:12.950Z,4.88
2023-04-19T11:27:44.867Z,4.85
2023-04-19T11:30:14.104Z,3.88
2023-04-19T11:33:03.674Z,4.32
2023-04-19T11:35:31.765Z,3.03
2023-04-19T11:38:00.132Z,4.68
2023-04-19T11:40:27.967Z,8.27
2023-04-19T11:43:00.809Z,6.97
2023-04-19T11:45:35.384Z,8.20
2023-04-19T11:48:06.250Z,5.85
2023-04-19T11:50:42.251Z,5.60
2023-04-19T11:53:32.484Z,5.10
2023-04-19T11:56:07.917Z,5.15
2023-04-19T11:58:51.607Z,6.05
2023-04-19T12:01:21.546Z,5.85
2023-04-19T12:03:51.272Z,5.75
2023-04-19T12:06:39.684Z,4.57
2023-04-19T12:09:11.473Z,5.10
2023-04-19T12:11:50.402Z,4.90
2023-04-19T12:14:23.290Z,5.60
2023-04-19T12:17:12.130Z,4.75
2023-04-19T12:19:46.351Z,5.63
2023-04-19T12:22:16.344Z,4.95
2023-04-19T12:24:44.184Z,5.63
2023-04-19T12:27:13.256Z,3.05
2023-04-19T12:29:41.170Z,8.18
2023-04-19T12:32:11.069Z,14.48
2023-04-19T12:34:39.012Z,11.70
2023-04-19T12:37:07.095Z,10.85
2023-04-19T12:39:35.009Z,8.85
2023-04-19T12:42:03.059Z,8.02
2023-04-19T12:44:30.927Z,10.88
2023-04-19T12:46:58.890Z,10.65
2023-04-19T12:49:26.996Z,12.43
2023-04-19T12:51:57.250Z,12.68
2023-04-19T12:54:25.538Z,12.73
2023-04-19T12:56:54.346Z,10.52
2023-04-19T12:59:22.474Z,8.65
2023-04-19T13:01:51.421Z,6.80
2023-04-19T13:04:19.600Z,8.45
2023-04-19T13:06:50.672Z,6.90
2023-04-19T13:09:18.551Z,5.78
2023-04-19T13:11:46.353Z,6.30
2023-04-19T13:14:14.395Z,6.45
2023-04-19T13:16:42.795Z,6.18
2023-04-19T13:19:11.248Z,5.15
2023-04-19T13:21:40.176Z,5.78
2023-04-19T13:24:08.782Z,6.15
2023-04-19T13:26:37.525Z,4.35
2023-04-19T13:29:05.558Z,6.40
2023-04-19T13:31:35.051Z,11.68
2023-04-19T13:34:03.081Z,7.88
2023-04-19T13:36:31.541Z,6.43
2023-04-19T13:39:00.272Z,8.40
2023-04-19T13:41:28.512Z,9.73
2023-04-19T13:43:56.402Z,7.03
2023-04-19T13:46:24.430Z,6.47
2023-04-19T13:48:55.476Z,7.10
2023-04-19T13:51:23.230Z,7.75
2023-04-19T13:53:51.381Z,4.72
2023-04-19T13:56:19.287Z,4.63
2023-04-19T13:58:47.146Z,3.60
2023-04-19T14:01:15.996Z,3.30
2023-04-19T14:03:44.055Z,5.32
2023-04-19T14:06:12.069Z,3.60
2023-04-19T14:08:39.820Z,3.42
2023-04-19T14:11:07.505Z,2.67
2023-04-19T14:13:35.366Z,4.93
2023-04-19T14:16:04.422Z,2.83
2023-04-19T14:18:32.956Z,4.22
2023-04-19T14:21:01.770Z,2.28
2023-04-19T14:23:31.037Z,2.88
2023-04-19T14:25:59.030Z,2.92
2023-04-19T14:28:27.104Z,4.32
2023-04-19T14:30:55.794Z,3.85
2023-04-19T14:33:23.621Z,2.90
2023-04-19T14:35:51.700Z,2.97
2023-04-19T14:38:19.669Z,2.92
2023-04-19T14:40:47.572Z,2.95
2023-04-19T14:43:19.161Z,4.22
2023-04-19T14:45:49.871Z,2.67
2023-04-19T14:48:21.416Z,3.20
2023-04-19T14:50:50.270Z,2.92
2023-04-19T14:53:18.303Z,3.13
2023-04-19T14:55:45.977Z,3.70
2023-04-19T14:58:13.789Z,3.00
2023-04-19T15:00:43.275Z,3.40
2023-04-19T15:03:11.173Z,6.30
2023-04-19T15:05:41.103Z,2.67
2023-04-19T15:08:17.374Z,3.70
2023-04-19T15:10:56.083Z,2.05
2023-04-19T15:13:23.975Z,4.55
2023-04-19T15:15:51.806Z,3.42
2023-04-19T15:18:20.973Z,4.13
2023-04-19T15:20:48.789Z,1.88
2023-04-19T15:23:16.916Z,4.25
2023-04-19T15:25:44.903Z,5.13
2023-04-19T15:28:12.652Z,4.28
2023-04-19T15:30:40.913Z,3.47
2023-04-19T15:33:09.221Z,4.53
2023-04-19T15:35:37.103Z,4.47
2023-04-19T15:38:05.025Z,3.45
2023-04-19T15:40:32.788Z,1.88
2023-04-19T15:43:01.232Z,2.05
2023-04-19T15:45:29.384Z,3.55
2023-04-19T15:47:57.433Z,2.63
2023-04-19T15:50:28.891Z,2.83
2023-04-19T15:53:08.135Z,2.97
2023-04-19T15:55:56.691Z,4.78
2023-04-19T15:58:30.965Z,3.65
2023-04-19T16:00:58.868Z,2.63
2023-04-19T16:03:28.506Z,1.77
2023-04-19T16:05:56.477Z,3.47
2023-04-19T16:08:24.743Z,2.95
2023-04-19T16:10:55.583Z,2.38
2023-04-19T16:13:23.498Z,2.05
2023-04-19T16:15:51.386Z,2.63
2023-04-19T16:18:21.292Z,2.90
2023-04-19T16:20:49.162Z,3.08
2023-04-19T16:23:48.366Z,2.30
2023-04-19T16:26:14.076Z,3.92
2023-04-19T16:28:50.345Z,3.85
2023-04-19T16:31:19.462Z,3.55
2023-04-19T16:33:48.171Z,3.38
2023-04-19T16:36:16.421Z,3.78
2023-04-19T16:38:44.603Z,3.60
2023-04-19T16:41:12.491Z,3.92
2023-04-19T16:43:56.183Z,4.40
2023-04-19T16:46:34.036Z,2.60
2023-04-19T16:49:02.428Z,3.17
2023-04-19T16:51:31.009Z,4.88
2023-04-19T16:54:00.723Z,2.63
2023-04-19T16:56:28.865Z,2.58
2023-04-19T16:58:56.808Z,2.55
2023-04-19T17:01:25.004Z,3.28
2023-04-19T17:03:53.315Z,2.47
2023-04-19T17:06:21.477Z,3.63
2023-04-19T17:08:50.238Z,4.60
2023-04-19T17:11:18.834Z,5.28
2023-04-19T17:13:47.945Z,7.57
2023-04-19T17:16:18.858Z,4.30
2023-04-19T17:18:46.715Z,4.68
2023-04-19T17:21:16.333Z,6.22
2023-04-19T17:23:45.849Z,6.10
2023-04-19T17:26:16.165Z,6.45
2023-04-19T17:28:44.247Z,4.88
2023-04-19T17:31:12.386Z,5.18
2023-04-19T17:33:40.689Z,7.15
2023-04-19T17:36:09.776Z,9.27
2023-04-19T17:38:37.688Z,7.45
2023-04-19T17:41:08.684Z,4.18
2023-04-19T17:43:36.456Z,5.38
2023-04-19T17:46:04.409Z,4.97
2023-04-19T17:48:32.725Z,7.00
2023-04-19T17:51:01.256Z,7.90
2023-04-19T17:53:30.843Z,8.70
2023-04-19T17:55:59.228Z,8.18
2023-04-19T17:58:27.159Z,12.65
2023-04-19T18:00:55.155Z,18.00
2023-04-19T18:03:23.153Z,15.82
2023-04-19T18:05:54.473Z,16.45
2023-04-19T18:08:22.441Z,12.07
2023-04-19T18:10:51.107Z,11.57
2023-04-19T18:13:19.118Z,8.57
2023-04-19T18:15:47.072Z,9.20
2023-04-19T18:18:14.882Z,11.07
2023-04-19T18:20:47.426Z,9.93
2023-04-19T18:23:15.835Z,7.97
2023-04-19T18:25:43.551Z,8.43
2023-04-19T18:28:11.891Z,8.45
2023-04-19T18:30:42.325Z,9.05
2023-04-19T18:33:10.115Z,8.75
2023-04-19T18:35:38.141Z,8.82
2023-04-19T18:38:07.067Z,12.57
2023-04-19T18:40:34.854Z,10.70
2023-04-19T18:43:05.121Z,11.75
2023-04-19T18:45:33.291Z,12.32
2023-04-19T18:48:01.458Z,17.90
2023-04-19T18:50:32.828Z,22.30
2023-04-19T18:53:00.560Z,14.88
2023-04-19T18:55:29.621Z,25.33
2023-04-19T18:57:57.510Z,14.73
2023-04-19T19:00:27.163Z,12.38
2023-04-19T19:02:55.446Z,7.70
2023-04-19T19:05:23.446Z,8.55
2023-04-19T19:07:51.539Z,7.00
2023-04-19T19:10:22.597Z,11.77
2023-04-19T19:12:54.862Z,7.90
2023-04-19T19:15:22.650Z,13.13
2023-04-19T19:17:54.321Z,17.52
2023-04-19T19:20:24.524Z,13.63
2023-04-19T19:22:55.006Z,10.88
2023-04-19T19:25:23.092Z,10.45
2023-04-19T19:30:27.829Z,10.90
2023-04-19T19:32:56.353Z,9.25
2023-04-19T19:35:27.116Z,8.63
2023-04-19T19:38:03.863Z,10.25
2023-04-19T19:40:32.837Z,7.18
2023-04-19T19:43:03.629Z,8.80
2023-04-19T19:45:31.700Z,9.23
2023-04-19T19:48:00.142Z,7.22
2023-04-19T19:53:02.120Z,7.07
2023-04-19T19:55:31.306Z,8.63
2023-04-19T20:03:02.459Z,9.48
2023-04-19T20:05:31.049Z,9.18
2023-04-19T20:08:13.438Z,7.07
2023-04-19T20:10:43.199Z,8.98
2023-04-19T20:13:13.173Z,6.00
2023-04-19T20:15:43.458Z,11.35
2023-04-19T20:18:13.335Z,9.50
2023-04-19T20:20:41.208Z,24.30
2023-04-19T20:23:09.681Z,19.65
2023-04-19T20:25:39.003Z,11.65
2023-04-19T20:28:07.282Z,13.60
2023-04-19T20:30:37.198Z,9.95
2023-04-19T20:33:06.550Z,9.07
2023-04-19T20:35:37.651Z,7.28
2023-04-19T20:38:08.016Z,8.00
2023-04-19T20:40:37.524Z,5.55
2023-04-19T20:43:06.562Z,7.70
2023-04-19T20:48:18.800Z,9.75
2023-04-19T20:50:46.820Z,9.38
2023-04-19T20:53:14.739Z,63.10
2023-04-19T20:55:46.375Z,50.95
2023-04-19T20:58:14.126Z,31.40
2023-04-19T21:00:42.026Z,22.90
2023-04-19T21:03:12.963Z,16.45
2023-04-19T21:05:41.117Z,16.52
2023-04-19T21:08:08.774Z,11.00
2023-04-19T21:10:36.677Z,10.02
2023-04-19T21:13:04.733Z,10.95
2023-04-19T21:15:32.629Z,8.48
2023-04-19T21:18:00.456Z,6.07
2023-04-19T21:20:28.403Z,9.32
2023-04-19T21:22:56.180Z,6.20
2023-04-19T21:25:24.002Z,7.93
2023-04-19T21:27:53.245Z,8.77
2023-04-19T21:30:23.275Z,10.15
2023-04-19T21:32:51.606Z,10.07
2023-04-19T21:35:20.919Z,9.30
2023-04-19T21:37:48.744Z,10.05
2023-04-19T21:40:16.629Z,8.50
2023-04-19T21:42:44.344Z,7.93
2023-04-19T21:45:12.208Z,6.55
2023-04-19T21:47:40.277Z,5.97
2023-04-19T21:50:08.886Z,7.20
2023-04-19T21:52:36.698Z,6.93
2023-04-19T21:55:05.227Z,4.72
2023-04-19T21:57:34.152Z,6.53
2023-04-19T22:00:01.928Z,6.22
2023-04-19T22:02:31.450Z,4.82
2023-04-19T22:05:00.641Z,5.38
2023-04-19T22:07:31.335Z,4.80
2023-04-19T22:10:01.497Z,4.22
2023-04-19T22:12:31.234Z,4.03
2023-04-19T22:14:59.178Z,4.60
2023-04-19T22:17:28.693Z,5.35
2023-04-19T22:19:57.397Z,5.60
2023-04-19T22:22:26.810Z,5.47
2023-04-19T22:24:57.969Z,5.03
2023-04-19T22:27:29.446Z,3.63
2023-04-19T22:30:01.502Z,5.82
2023-04-19T22:32:30.116Z,4.57
2023-04-19T22:34:58.416Z,6.05
2023-04-19T22:37:26.413Z,5.65
2023-04-19T22:39:54.229Z,5.13
2023-04-19T22:42:24.255Z,5.15
2023-04-19T22:44:52.080Z,4.97
2023-04-19T22:47:20.037Z,5.50
2023-04-19T22:49:48.511Z,4.28
2023-04-19T22:52:16.310Z,6.25
2023-04-19T22:54:44.176Z,5.05
2023-04-19T22:57:12.158Z,4.30
2023-04-19T22:59:40.091Z,3.58
2023-04-19T23:02:09.520Z,3.50
2023-04-19T23:04:38.365Z,4.97
2023-04-19T23:07:06.880Z,4.38
2023-04-19T23:09:34.778Z,4.43
2023-04-19T23:12:02.569Z,4.90
2023-04-19T23:14:30.397Z,4.20
2023-04-19T23:16:58.212Z,4.53
2023-04-19T23:19:26.508Z,4.22
2023-04-19T23:21:54.256Z,4.28
2023-04-19T23:24:22.318Z,4.07
2023-04-19T23:26:50.322Z,4.95
2023-04-19T23:29:18.468Z,3.92
2023-04-19T23:31:46.576Z,3.22
2023-04-19T23:34:14.563Z,4.15
2023-04-19T23:36:42.359Z,5.18
2023-04-19T23:39:10.031Z,4.82
2023-04-19T23:41:37.893Z,5.32
2023-04-19T23:44:06.242Z,4.43
2023-04-19T23:46:34.163Z,4.07
2023-04-19T23:49:02.093Z,4.30
2023-04-19T23:51:29.806Z,3.35
2023-04-19T23:53:57.784Z,3.50
2023-04-19T23:56:25.923Z,3.10
2023-04-19T23:58:53.642Z,4.85
